Oslo, Norway
Current Conditions -  °F | °C
As of 10:20 AM on Monday 24 Nov 2014 (Local Time) from ENGM Reporting Station
Light Rain Light Rain  
Wind Chill: 39°   Ceiling: 600
Heat Index: 43°   Visibility: 5mi
Dew Point: 41°   Wind: 6mph
Humidity: 93%   Direction: 140°SE
Pressure: 29.65"   Gusts: NA
Location:  60.2°N, 11.08°E
Report Text: ENGM 240920Z 14005KT 8000 -RA SCT003 BKN006 06/05 Q1004 TEMPO 4000 BR BKN003
Loading
Personal Weather Stations






























Interactive Weather Map New forecast layout! Learn more

10-Day Weather Forecast

Advertisements
Track Severe Weather on mobile